Time;durP1;ratioP1;P1;durP2;ratioP2;P2;SDS_P1;SDS_P2;PMS_P1;PMS_P2;Temp;Humidity;BMP_temperature;BMP_pressure;BME280_temperature;BME280_humidity;BME280_pressure;Samples;Min_cycle;Max_cycle;Signal;HPM_P1;HPM_P2
2022/02/27 00:00:18;;;;;;;6.40;4.93;;;1.90;82.30;;;;;;5025221;28;20193;-86
2022/02/27 00:02:44;;;;;;;6.77;4.93;;;1.80;82.30;;;;;;5016696;28;20653;-87
2022/02/27 00:05:10;;;;;;;7.40;5.73;;;1.80;83.70;;;;;;5011964;28;20209;-87
2022/02/27 00:07:36;;;;;;;10.80;5.33;;;1.90;83.80;;;;;;5013756;28;20221;-87
2022/02/27 00:10:06;;;;;;;8.50;4.90;;;2.00;82.90;;;;;;5000240;28;20726;-87
2022/02/27 00:12:32;;;;;;;10.13;5.17;;;2.20;81.70;;;;;;5013042;28;20329;-86
2022/02/27 00:14:57;;;;;;;7.67;4.80;;;2.20;80.90;;;;;;4999819;28;20298;-87
2022/02/27 00:17:23;;;;;;;8.20;5.07;;;2.10;81.60;;;;;;4999981;28;20197;-87
2022/02/27 00:19:49;;;;;;;9.33;4.57;;;2.20;80.50;;;;;;5011564;28;20648;-87
2022/02/27 00:22:14;;;;;;;7.40;4.93;;;2.30;81.30;;;;;;5002019;28;20252;-87
2022/02/27 00:24:40;;;;;;;7.87;4.83;;;2.40;81.00;;;;;;5017996;28;20217;-86
2022/02/27 00:27:05;;;;;;;9.20;4.87;;;2.60;81.30;;;;;;5003408;28;20561;-87
2022/02/27 00:29:31;;;;;;;6.40;4.70;;;2.70;80.30;;;;;;5016132;28;20718;-87
2022/02/27 00:31:57;;;;;;;7.83;5.27;;;2.80;79.00;;;;;;4996979;28;20196;-87
2022/02/27 00:34:23;;;;;;;8.30;4.73;;;2.90;76.80;;;;;;5018451;28;20206;-87
2022/02/27 00:36:51;;;;;;;6.53;4.83;;;2.70;77.00;;;;;;5021744;28;20288;-87
2022/02/27 00:39:18;;;;;;;9.87;5.40;;;2.70;78.60;;;;;;5005184;28;20201;-86
2022/02/27 00:41:44;;;;;;;10.00;5.13;;;2.90;79.40;;;;;;5021217;28;20675;-87
2022/02/27 00:44:09;;;;;;;7.43;4.63;;;3.00;78.30;;;;;;4998088;28;20184;-87
2022/02/27 00:46:35;;;;;;;7.13;4.53;;;3.00;75.90;;;;;;5016198;28;20217;-87
2022/02/27 00:49:01;;;;;;;8.30;5.23;;;3.00;77.20;;;;;;5003694;28;20482;-87
2022/02/27 00:51:26;;;;;;;8.37;5.67;;;3.00;77.90;;;;;;5029136;28;20190;-86
2022/02/27 00:53:52;;;;;;;7.33;4.60;;;3.10;77.40;;;;;;5019682;28;20549;-88
2022/02/27 00:56:17;;;;;;;8.57;5.00;;;3.10;76.20;;;;;;5020351;28;20426;-87
2022/02/27 00:58:46;;;;;;;7.20;4.67;;;3.10;75.90;;;;;;5001331;28;20683;-87
2022/02/27 01:01:12;;;;;;;6.80;4.43;;;3.00;75.80;;;;;;5015432;28;20201;-87
2022/02/27 01:03:38;;;;;;;8.33;4.90;;;3.00;76.80;;;;;;5016147;28;20256;-87
2022/02/27 01:06:03;;;;;;;10.53;5.13;;;3.00;77.00;;;;;;5011749;28;20236;-87
2022/02/27 01:08:29;;;;;;;9.93;5.30;;;3.10;76.80;;;;;;4993010;28;20189;-87
2022/02/27 01:10:54;;;;;;;8.20;4.73;;;3.00;75.60;;;;;;5015587;28;20193;-87
2022/02/27 01:13:20;;;;;;;7.77;4.37;;;2.80;75.80;;;;;;5022653;28;20185;-88
2022/02/27 01:15:46;;;;;;;12.07;5.43;;;2.80;76.10;;;;;;5015789;28;20295;-87
2022/02/27 01:18:11;;;;;;;7.37;4.80;;;2.40;76.00;;;;;;5001174;28;20248;-86
2022/02/27 01:20:37;;;;;;;6.90;4.97;;;2.30;78.70;;;;;;5018537;28;20190;-87
2022/02/27 01:23:03;;;;;;;9.60;5.77;;;2.30;79.60;;;;;;5003936;28;20185;-87
2022/02/27 01:25:28;;;;;;;11.30;5.70;;;2.30;77.90;;;;;;4999611;28;20289;-87
2022/02/27 01:27:55;;;;;;;8.83;4.70;;;2.10;79.30;;;;;;5010339;28;20193;-87
2022/02/27 01:30:20;;;;;;;6.73;4.37;;;2.10;81.10;;;;;;5011168;28;20213;-87
2022/02/27 01:32:46;;;;;;;8.83;5.13;;;2.30;80.40;;;;;;5011673;28;21006;-87
2022/02/27 01:35:12;;;;;;;9.83;4.77;;;2.30;79.00;;;;;;5002041;28;20213;-86
2022/02/27 01:37:38;;;;;;;8.47;4.90;;;2.20;78.80;;;;;;5020096;28;20201;-87
2022/02/27 01:40:05;;;;;;;7.83;4.73;;;2.10;79.90;;;;;;5014042;28;20209;-87
2022/02/27 01:42:31;;;;;;;10.00;5.03;;;2.20;81.00;;;;;;5018477;28;20221;-87
2022/02/27 01:44:57;;;;;;;6.70;4.90;;;2.20;80.00;;;;;;5023327;28;20598;-87
2022/02/27 01:47:22;;;;;;;6.70;4.83;;;2.10;79.20;;;;;;5015698;28;20217;-86
2022/02/27 01:49:50;;;;;;;8.83;4.60;;;1.90;81.10;;;;;;4997381;28;20226;-87
2022/02/27 01:52:16;;;;;;;8.90;5.23;;;2.00;81.50;;;;;;5020180;28;20189;-87
2022/02/27 01:54:42;;;;;;;7.40;4.90;;;1.90;80.80;;;;;;5010431;28;20206;-87
2022/02/27 01:57:11;;;;;;;7.43;4.77;;;1.70;81.60;;;;;;5009510;28;20210;-87
2022/02/27 01:59:38;;;;;;;10.70;4.77;;;1.60;82.20;;;;;;5015534;28;20320;-87
2022/02/27 02:02:04;;;;;;;8.57;5.57;;;1.50;83.80;;;;;;5014781;28;20193;-87
2022/02/27 02:04:31;;;;;;;6.80;5.07;;;1.40;84.00;;;;;;5015522;28;20276;-87
2022/02/27 02:06:57;;;;;;;8.10;5.43;;;1.40;84.70;;;;;;5012968;28;20267;-87
2022/02/27 02:09:23;;;;;;;10.53;5.40;;;1.30;85.20;;;;;;4998984;28;20277;-87
2022/02/27 02:11:48;;;;;;;8.23;5.20;;;1.30;85.90;;;;;;5000500;28;20292;-87
2022/02/27 02:14:14;;;;;;;7.73;5.07;;;1.30;86.10;;;;;;5014993;28;20292;-87
2022/02/27 02:16:52;;;;;;;9.30;4.73;;;1.20;86.60;;;;;;4993763;28;20661;-87
2022/02/27 02:19:21;;;;;;;9.00;5.00;;;1.20;88.10;;;;;;5024444;28;20188;-87
2022/02/27 02:21:49;;;;;;;7.73;5.37;;;1.30;89.30;;;;;;4998171;28;20201;-87
2022/02/27 02:24:16;;;;;;;8.97;5.13;;;1.40;87.70;;;;;;5016536;28;20228;-87
2022/02/27 02:26:43;;;;;;;6.40;4.67;;;1.40;87.20;;;;;;5021034;28;20208;-87
2022/02/27 02:29:12;;;;;;;8.73;5.53;;;1.30;87.70;;;;;;5020102;28;20200;-87
2022/02/27 02:31:38;;;;;;;8.40;4.87;;;1.30;87.70;;;;;;4995371;28;20240;-87
2022/02/27 02:34:09;;;;;;;8.00;5.20;;;1.30;87.50;;;;;;5019878;28;20189;-87
2022/02/27 02:36:35;;;;;;;6.73;5.23;;;1.20;88.00;;;;;;5007235;28;20640;-87
2022/02/27 02:39:07;;;;;;;8.50;4.97;;;1.20;88.20;;;;;;5019218;28;20296;-86
2022/02/27 02:41:33;;;;;;;8.17;4.93;;;1.20;88.80;;;;;;5026484;28;20205;-87
2022/02/27 02:43:59;;;;;;;10.57;4.90;;;1.00;89.40;;;;;;5027142;28;20192;-87
2022/02/27 02:46:25;;;;;;;9.77;5.23;;;1.00;90.20;;;;;;5012302;28;20213;-87
2022/02/27 02:48:51;;;;;;;8.07;4.23;;;1.00;90.50;;;;;;5009378;28;20195;-87
2022/02/27 02:51:16;;;;;;;9.23;5.00;;;1.10;90.90;;;;;;5016512;28;20232;-87
2022/02/27 02:53:43;;;;;;;8.07;4.73;;;1.10;89.80;;;;;;5017163;28;20185;-87
2022/02/27 02:56:10;;;;;;;8.27;4.47;;;1.20;90.00;;;;;;5023461;28;20859;-87
2022/02/27 02:58:40;;;;;;;8.47;4.60;;;1.30;89.70;;;;;;5006132;28;20293;-88
2022/02/27 03:01:07;;;;;;;6.60;4.70;;;1.40;89.50;;;;;;5027405;28;20181;-88
2022/02/27 03:03:33;;;;;;;5.67;4.63;;;1.60;89.80;;;;;;5021276;28;20192;-87
2022/02/27 03:05:58;;;;;;;8.27;5.33;;;1.70;88.40;;;;;;5004132;28;20221;-85
2022/02/27 03:08:24;;;;;;;10.83;5.50;;;1.80;86.40;;;;;;5001985;28;20221;-87
2022/02/27 03:10:50;;;;;;;8.73;5.07;;;1.80;86.40;;;;;;5001425;28;20590;-87
2022/02/27 03:13:16;;;;;;;8.97;5.03;;;1.90;85.60;;;;;;5019734;28;20194;-87
2022/02/27 03:15:42;;;;;;;11.40;5.40;;;1.90;86.00;;;;;;5031138;28;20248;-87
2022/02/27 03:18:08;;;;;;;8.60;5.70;;;2.00;84.90;;;;;;5004953;28;20279;-87
2022/02/27 03:20:34;;;;;;;7.73;5.10;;;1.80;83.80;;;;;;5002044;28;20221;-86
2022/02/27 03:23:00;;;;;;;8.03;5.27;;;1.60;86.10;;;;;;5017148;28;20526;-87
2022/02/27 03:25:27;;;;;;;10.97;5.47;;;1.50;86.30;;;;;;5009006;28;20205;-86
2022/02/27 03:27:54;;;;;;;6.90;4.80;;;1.40;86.30;;;;;;5019077;28;20681;-86
2022/02/27 03:30:19;;;;;;;8.27;6.00;;;1.00;89.30;;;;;;5016678;28;20221;-86
2022/02/27 03:32:48;;;;;;;8.10;5.07;;;0.80;91.80;;;;;;5025565;28;20193;-87
2022/02/27 03:35:15;;;;;;;7.30;5.83;;;0.80;94.00;;;;;;5023738;28;20252;-87
2022/02/27 03:37:41;;;;;;;9.73;4.90;;;0.80;93.80;;;;;;5018752;28;20208;-87
2022/02/27 03:40:08;;;;;;;8.80;5.30;;;0.90;93.90;;;;;;5025006;28;20201;-86
2022/02/27 03:42:34;;;;;;;8.27;4.43;;;0.90;93.30;;;;;;5020250;28;20196;-87
2022/02/27 03:44:59;;;;;;;9.47;4.70;;;1.00;92.30;;;;;;5020858;28;20292;-87
2022/02/27 03:47:25;;;;;;;9.50;5.20;;;0.90;93.60;;;;;;5003868;28;20746;-87
2022/02/27 03:49:51;;;;;;;8.70;4.50;;;0.90;94.20;;;;;;5021666;28;20695;-87
2022/02/27 03:52:17;;;;;;;7.67;4.47;;;0.90;94.60;;;;;;5022330;28;20649;-87
2022/02/27 03:54:43;;;;;;;9.83;5.17;;;0.90;94.70;;;;;;5019162;28;20216;-88
2022/02/27 03:57:08;;;;;;;7.57;4.37;;;1.00;93.90;;;;;;5018545;28;20197;-86
2022/02/27 03:59:34;;;;;;;6.53;4.70;;;1.10;93.40;;;;;;5021976;28;20197;-87
2022/02/27 04:02:00;;;;;;;12.83;4.67;;;1.20;94.10;;;;;;5027365;28;20197;-87
2022/02/27 04:04:25;;;;;;;9.27;5.47;;;1.10;92.60;;;;;;4999741;28;20217;-87
2022/02/27 04:06:51;;;;;;;7.63;5.10;;;1.10;92.80;;;;;;5012758;28;20225;-87
2022/02/27 04:09:17;;;;;;;7.43;4.47;;;1.00;93.50;;;;;;5002315;28;20189;-87
2022/02/27 04:11:42;;;;;;;8.23;4.47;;;1.10;93.90;;;;;;5027731;28;20240;-87
2022/02/27 04:14:08;;;;;;;8.40;4.87;;;1.10;92.90;;;;;;5014068;28;20201;-87
2022/02/27 04:16:34;;;;;;;8.77;4.57;;;1.20;93.60;;;;;;5002794;28;20221;-87
2022/02/27 04:18:59;;;;;;;9.00;5.10;;;1.20;93.30;;;;;;5019152;28;20320;-87
2022/02/27 04:21:26;;;;;;;8.87;5.27;;;1.10;93.20;;;;;;5015248;28;20215;-87
2022/02/27 04:23:52;;;;;;;10.73;4.73;;;1.10;93.60;;;;;;5020031;28;20192;-87
2022/02/27 04:26:17;;;;;;;9.70;5.07;;;1.10;92.60;;;;;;5016382;28;20734;-87
2022/02/27 04:28:43;;;;;;;11.10;4.80;;;1.20;93.60;;;;;;5013921;28;20199;-86
2022/02/27 04:31:09;;;;;;;6.33;4.90;;;1.30;92.40;;;;;;5005812;28;20190;-87
2022/02/27 04:33:34;;;;;;;8.97;4.73;;;1.30;92.40;;;;;;5012857;28;20229;-87
2022/02/27 04:36:00;;;;;;;7.77;4.73;;;1.30;92.30;;;;;;5023073;28;20216;-87
2022/02/27 04:38:26;;;;;;;6.47;4.30;;;1.20;91.60;;;;;;5007481;28;20196;-88
2022/02/27 04:40:52;;;;;;;7.73;4.67;;;1.10;92.00;;;;;;5016809;28;20205;-86
2022/02/27 04:43:17;;;;;;;7.80;4.90;;;1.00;92.70;;;;;;5019937;28;20294;-86
2022/02/27 04:45:43;;;;;;;9.13;5.63;;;0.90;92.40;;;;;;4999324;28;20201;-88
2022/02/27 04:48:08;;;;;;;7.13;4.97;;;1.00;92.80;;;;;;4998846;28;20194;-87
2022/02/27 04:50:34;;;;;;;6.53;4.97;;;0.80;93.20;;;;;;5019833;28;20189;-87
2022/02/27 04:53:00;;;;;;;7.23;4.87;;;0.80;93.70;;;;;;5016605;28;20182;-87
2022/02/27 04:55:25;;;;;;;8.27;4.70;;;0.80;93.40;;;;;;5016593;28;20209;-88
2022/02/27 04:57:51;;;;;;;6.97;4.60;;;0.80;93.10;;;;;;5021881;28;20288;-88
2022/02/27 05:00:17;;;;;;;8.67;4.93;;;0.80;93.50;;;;;;4998592;28;20495;-87
2022/02/27 05:02:43;;;;;;;6.13;4.40;;;0.80;92.90;;;;;;5015519;28;20192;-87
2022/02/27 05:05:09;;;;;;;6.50;4.20;;;0.90;93.20;;;;;;5010575;28;20697;-87
2022/02/27 05:07:34;;;;;;;7.33;4.80;;;0.90;92.40;;;;;;5025773;28;20258;-87
2022/02/27 05:10:00;;;;;;;7.23;4.50;;;0.80;94.80;;;;;;5015576;28;20201;-87
2022/02/27 05:12:26;;;;;;;11.97;5.37;;;0.80;95.50;;;;;;5015662;28;20193;-87
2022/02/27 05:14:52;;;;;;;10.90;4.90;;;0.90;95.30;;;;;;5020080;28;20216;-88
2022/02/27 05:17:18;;;;;;;13.93;4.87;;;1.00;95.30;;;;;;5018474;28;20288;-87
2022/02/27 05:19:44;;;;;;;10.87;4.90;;;1.00;94.90;;;;;;4998583;28;20288;-87
2022/02/27 05:22:09;;;;;;;9.27;4.53;;;1.10;94.60;;;;;;4998668;28;20194;-87
2022/02/27 05:24:35;;;;;;;10.03;5.20;;;1.10;94.40;;;;;;5022119;28;20279;-87
2022/02/27 05:27:01;;;;;;;8.77;4.40;;;1.10;94.40;;;;;;4997035;28;20221;-87
2022/02/27 05:29:26;;;;;;;10.47;4.30;;;1.10;94.50;;;;;;5016903;28;20194;-87
2022/02/27 05:31:52;;;;;;;7.87;4.83;;;1.20;94.50;;;;;;5023761;28;20185;-87
2022/02/27 05:34:19;;;;;;;8.43;4.73;;;1.20;94.10;;;;;;5010019;28;20631;-87
2022/02/27 05:36:45;;;;;;;9.17;4.80;;;1.20;94.00;;;;;;5016587;28;20200;-88
2022/02/27 05:39:10;;;;;;;7.60;4.33;;;1.10;94.00;;;;;;5015575;28;20548;-87
2022/02/27 05:41:36;;;;;;;12.77;4.53;;;1.30;94.50;;;;;;5018534;28;20205;-87
2022/02/27 05:44:02;;;;;;;10.43;4.83;;;1.30;93.80;;;;;;5012095;28;20202;-88
2022/02/27 05:46:28;;;;;;;7.93;4.93;;;1.30;93.60;;;;;;5004582;28;20702;-87
2022/02/27 05:48:53;;;;;;;6.00;4.73;;;1.30;93.70;;;;;;5015009;28;20525;-87
2022/02/27 05:51:19;;;;;;;6.37;4.27;;;1.30;93.60;;;;;;5009916;28;20193;-87
2022/02/27 05:53:45;;;;;;;6.93;4.17;;;1.40;93.10;;;;;;4997154;28;20181;-88
2022/02/27 05:56:12;;;;;;;7.90;5.33;;;1.30;92.80;;;;;;4997466;28;20371;-87
2022/02/27 05:58:38;;;;;;;6.83;4.80;;;1.30;93.40;;;;;;4997588;28;20289;-87
2022/02/27 06:01:04;;;;;;;10.90;4.60;;;1.20;93.90;;;;;;4999103;28;20284;-86
2022/02/27 06:03:29;;;;;;;6.37;4.67;;;1.10;93.70;;;;;;5024955;28;20200;-87
2022/02/27 06:05:55;;;;;;;11.23;5.27;;;1.10;94.50;;;;;;5010227;28;20217;-86
2022/02/27 06:08:21;;;;;;;7.33;4.80;;;1.10;94.40;;;;;;5001600;28;20713;-87
2022/02/27 06:10:46;;;;;;;9.83;5.10;;;1.00;94.80;;;;;;5012474;28;20181;-87
2022/02/27 06:13:12;;;;;;;6.83;4.50;;;1.00;95.40;;;;;;5015276;28;20688;-86
2022/02/27 06:15:38;;;;;;;9.40;5.07;;;1.00;95.20;;;;;;4997786;28;20213;-87
2022/02/27 06:18:04;;;;;;;11.77;4.87;;;1.00;95.80;;;;;;5021360;28;20220;-86
2022/02/27 06:20:30;;;;;;;10.57;5.70;;;1.00;95.50;;;;;;5014150;28;20197;-87
2022/02/27 06:22:56;;;;;;;8.93;5.53;;;1.00;95.30;;;;;;5007316;28;20209;-87
2022/02/27 06:25:22;;;;;;;10.17;5.37;;;1.10;95.40;;;;;;5022600;28;20685;-87
2022/02/27 06:27:48;;;;;;;6.37;4.83;;;1.10;94.60;;;;;;4999256;28;20284;-87
2022/02/27 06:30:24;;;;;;;7.90;4.93;;;1.10;94.60;;;;;;4993893;28;20198;-87
2022/02/27 06:32:51;;;;;;;10.67;4.70;;;1.10;94.50;;;;;;5018752;28;20193;-86
2022/02/27 06:35:19;;;;;;;8.17;5.40;;;1.10;94.20;;;;;;5017597;28;20745;-87
2022/02/27 06:37:45;;;;;;;10.23;5.13;;;1.10;94.60;;;;;;5011569;28;20198;-87
2022/02/27 06:40:11;;;;;;;7.67;4.73;;;1.10;94.60;;;;;;5009375;28;20197;-87
2022/02/27 06:42:38;;;;;;;7.03;4.70;;;1.10;94.80;;;;;;5014475;28;20198;-86
2022/02/27 06:45:05;;;;;;;9.10;5.47;;;1.10;94.60;;;;;;5010029;28;20217;-87
2022/02/27 06:47:31;;;;;;;9.73;4.60;;;1.10;94.80;;;;;;5011512;28;20597;-87
2022/02/27 06:49:57;;;;;;;6.10;4.57;;;1.00;94.80;;;;;;5000106;28;20201;-87
2022/02/27 06:52:23;;;;;;;9.70;5.10;;;1.00;95.30;;;;;;5009453;28;20372;-87
2022/02/27 06:54:49;;;;;;;7.13;4.43;;;1.00;94.90;;;;;;5010434;28;20208;-87
2022/02/27 06:57:15;;;;;;;10.43;5.03;;;1.00;96.00;;;;;;5018615;28;20205;-87
2022/02/27 06:59:41;;;;;;;11.27;4.60;;;1.00;96.00;;;;;;5005062;28;20206;-88
2022/02/27 07:02:08;;;;;;;7.97;5.07;;;1.10;95.80;;;;;;5013935;28;20780;-88
2022/02/27 07:04:34;;;;;;;13.87;7.17;;;1.10;95.80;;;;;;5007651;28;20244;-89
2022/02/27 07:06:59;;;;;;;29.03;17.50;;;1.10;96.00;;;;;;5011367;28;20229;-89
2022/02/27 07:09:25;;;;;;;16.87;9.77;;;1.00;96.20;;;;;;5013942;28;20192;-89
2022/02/27 07:11:52;;;;;;;9.70;6.47;;;1.10;97.00;;;;;;5018357;28;20194;-89
2022/02/27 07:14:18;;;;;;;7.80;5.43;;;1.20;95.90;;;;;;5018744;28;20219;-87
2022/02/27 07:16:44;;;;;;;13.37;6.70;;;1.30;96.10;;;;;;4986895;28;20766;-88
2022/02/27 07:19:11;;;;;;;11.33;5.50;;;1.30;95.90;;;;;;4990799;28;20208;-88
2022/02/27 07:21:36;;;;;;;8.13;4.80;;;1.30;95.90;;;;;;5011128;28;20189;-87
2022/02/27 07:24:02;;;;;;;5.83;5.23;;;1.30;96.10;;;;;;5012668;28;20208;-87
2022/02/27 07:26:28;;;;;;;12.53;5.90;;;1.40;96.00;;;;;;4989747;28;20589;-88
2022/02/27 07:28:54;;;;;;;9.50;5.93;;;1.40;95.70;;;;;;5014951;28;20193;-87
2022/02/27 07:31:20;;;;;;;11.47;5.57;;;1.50;95.70;;;;;;5004019;28;20208;-88
2022/02/27 07:33:45;;;;;;;9.67;5.33;;;1.50;95.40;;;;;;5009269;28;20281;-88
2022/02/27 07:36:11;;;;;;;9.00;5.50;;;1.50;95.30;;;;;;5010238;28;20225;-87
2022/02/27 07:38:37;;;;;;;9.73;5.63;;;1.60;95.10;;;;;;5012254;28;20256;-88
2022/02/27 07:41:03;;;;;;;11.97;5.43;;;1.60;95.10;;;;;;5014211;28;20528;-87
2022/02/27 07:43:29;;;;;;;12.80;5.37;;;1.70;94.90;;;;;;4997566;28;20252;-86
2022/02/27 07:45:54;;;;;;;9.47;5.73;;;1.70;94.20;;;;;;5017758;28;20225;-88
2022/02/27 07:48:20;;;;;;;8.83;6.03;;;1.70;94.50;;;;;;5036130;28;20212;-87
2022/02/27 07:50:46;;;;;;;14.00;6.00;;;1.80;93.70;;;;;;5031076;28;20189;-88
2022/02/27 07:53:12;;;;;;;10.60;5.80;;;1.90;93.50;;;;;;5018094;28;20252;-87
2022/02/27 07:55:37;;;;;;;7.40;5.73;;;1.90;93.50;;;;;;5022919;28;20217;-87
2022/02/27 07:58:04;;;;;;;9.00;5.53;;;2.00;92.10;;;;;;5010256;28;20263;-88
2022/02/27 08:00:29;;;;;;;8.90;5.27;;;2.10;92.20;;;;;;5008640;28;20626;-88
2022/02/27 08:02:55;;;;;;;9.93;6.43;;;2.10;91.80;;;;;;5011459;28;20198;-88
2022/02/27 08:05:21;;;;;;;7.07;5.40;;;2.20;91.50;;;;;;5007120;28;20235;-87
2022/02/27 08:07:47;;;;;;;8.63;5.63;;;2.30;90.90;;;;;;5014168;28;20219;-88
2022/02/27 08:10:13;;;;;;;8.13;5.70;;;2.40;90.20;;;;;;5013415;28;20196;-88
2022/02/27 08:12:43;;;;;;;9.47;5.50;;;2.40;89.90;;;;;;5017646;28;20195;-88
2022/02/27 08:15:10;;;;;;;8.17;5.57;;;2.50;88.80;;;;;;5010239;28;20236;-88
2022/02/27 08:17:36;;;;;;;9.20;6.00;;;2.60;88.90;;;;;;5024120;28;20201;-88
2022/02/27 08:20:06;;;;;;;9.40;6.27;;;2.60;88.50;;;;;;5022950;28;20193;-87
2022/02/27 08:22:31;;;;;;;6.97;5.00;;;2.60;88.80;;;;;;5012303;28;20197;-88
2022/02/27 08:24:57;;;;;;;8.47;5.83;;;2.70;87.70;;;;;;5014006;28;20768;-88
2022/02/27 08:27:23;;;;;;;8.67;6.20;;;2.80;86.70;;;;;;4993663;28;20222;-87
2022/02/27 08:29:49;;;;;;;10.60;7.20;;;2.80;86.20;;;;;;4988880;28;20574;-88
2022/02/27 08:32:19;;;;;;;9.27;6.30;;;3.00;86.00;;;;;;5001003;28;20195;-89
2022/02/27 08:34:44;;;;;;;10.20;5.53;;;3.00;85.70;;;;;;5016532;28;20272;-87
2022/02/27 08:37:10;;;;;;;12.47;6.43;;;3.10;85.20;;;;;;5035426;28;20200;-88
2022/02/27 08:39:36;;;;;;;7.67;5.80;;;3.20;84.30;;;;;;5030822;28;20190;-87
2022/02/27 08:42:03;;;;;;;7.73;5.40;;;3.30;84.00;;;;;;5007123;28;20198;-88
2022/02/27 08:44:33;;;;;;;9.83;6.20;;;3.40;83.80;;;;;;5006121;28;20680;-88
2022/02/27 08:47:05;;;;;;;9.70;5.80;;;3.50;82.20;;;;;;5015585;28;20790;-87
2022/02/27 08:49:31;;;;;;;7.90;5.80;;;3.60;80.70;;;;;;4995448;28;20553;-88
2022/02/27 08:51:57;;;;;;;6.90;4.97;;;3.70;79.90;;;;;;5005690;28;20198;-86
2022/02/27 08:54:24;;;;;;;7.97;5.63;;;3.80;79.50;;;;;;5025352;28;20227;-87
2022/02/27 08:56:50;;;;;;;8.73;5.70;;;3.80;79.50;;;;;;5014495;28;20246;-87
2022/02/27 08:59:16;;;;;;;7.40;5.63;;;3.90;78.80;;;;;;5015607;28;20228;-88
2022/02/27 09:01:42;;;;;;;6.73;6.03;;;4.10;77.30;;;;;;5015792;28;20281;-87
2022/02/27 09:04:08;;;;;;;8.73;5.57;;;4.20;76.90;;;;;;5009510;28;20197;-87
2022/02/27 09:06:34;;;;;;;8.70;5.17;;;4.30;76.40;;;;;;5011195;28;20216;-87
2022/02/27 09:09:00;;;;;;;9.60;5.07;;;4.40;74.60;;;;;;5012603;28;20197;-86
2022/02/27 09:11:25;;;;;;;6.97;5.23;;;4.50;74.40;;;;;;5018569;28;20660;-87
2022/02/27 09:13:51;;;;;;;8.63;5.30;;;4.60;73.70;;;;;;5018668;28;20249;-87
2022/02/27 09:16:17;;;;;;;9.60;5.63;;;4.60;74.20;;;;;;5004060;28;20229;-86
2022/02/27 09:18:42;;;;;;;6.97;4.90;;;4.80;72.80;;;;;;4990394;28;20564;-87
2022/02/27 09:21:08;;;;;;;7.97;5.07;;;4.90;70.90;;;;;;5012755;28;20197;-87
2022/02/27 09:23:37;;;;;;;7.37;4.93;;;5.10;70.70;;;;;;5010297;28;20190;-87
2022/02/27 09:26:04;;;;;;;7.07;5.03;;;5.20;70.10;;;;;;5017321;28;20225;-88
2022/02/27 09:28:30;;;;;;;6.97;5.60;;;5.20;70.00;;;;;;4994899;28;20268;-88
2022/02/27 09:30:56;;;;;;;7.63;4.80;;;5.30;69.40;;;;;;4999587;28;20204;-88
2022/02/27 09:33:21;;;;;;;7.73;5.00;;;5.50;68.70;;;;;;5011749;28;20193;-87
2022/02/27 09:35:47;;;;;;;7.93;4.67;;;5.60;69.10;;;;;;4991885;28;20208;-88
2022/02/27 09:38:13;;;;;;;7.43;4.80;;;5.70;67.60;;;;;;5007626;28;20209;-87
2022/02/27 09:40:39;;;;;;;7.53;5.17;;;5.70;67.50;;;;;;5008118;28;20197;-87
2022/02/27 09:43:04;;;;;;;6.37;4.40;;;5.80;66.40;;;;;;5006383;28;20680;-88
2022/02/27 09:45:31;;;;;;;8.10;4.80;;;6.00;65.90;;;;;;5012913;28;20259;-88
2022/02/27 09:47:57;;;;;;;5.50;4.90;;;6.10;64.80;;;;;;5012927;28;20292;-88
2022/02/27 09:50:24;;;;;;;9.37;4.80;;;6.20;65.20;;;;;;5016693;28;20209;-87
2022/02/27 09:52:50;;;;;;;7.30;5.07;;;6.30;63.50;;;;;;4999754;28;20203;-87
2022/02/27 09:55:17;;;;;;;6.97;5.27;;;6.30;64.20;;;;;;5006971;28;20220;-87
2022/02/27 09:57:46;;;;;;;7.80;4.90;;;6.50;63.70;;;;;;5015981;28;20241;-88
2022/02/27 10:00:17;;;;;;;8.10;5.00;;;6.70;62.10;;;;;;5011652;28;20683;-86
2022/02/27 10:03:09;;;;;;;5.90;4.87;;;6.70;62.40;;;;;;5011310;28;20270;-87
2022/02/27 10:05:41;;;;;;;9.60;5.60;;;6.90;60.40;;;;;;5014897;28;20213;-88
2022/02/27 10:08:08;;;;;;;8.10;4.97;;;7.10;59.30;;;;;;5010673;28;20240;-87
2022/02/27 10:10:35;;;;;;;7.27;5.27;;;7.20;60.10;;;;;;5017267;28;20185;-86
2022/02/27 10:13:02;;;;;;;6.50;4.40;;;7.40;57.70;;;;;;5029619;28;20220;-88
2022/02/27 10:15:28;;;;;;;9.17;5.43;;;7.40;57.30;;;;;;5013026;28;20229;-87
2022/02/27 10:17:54;;;;;;;6.70;4.97;;;7.50;57.90;;;;;;4993194;28;20206;-87
2022/02/27 10:20:23;;;;;;;7.87;5.10;;;7.60;57.80;;;;;;5013545;28;20271;-86
2022/02/27 10:22:51;;;;;;;6.03;4.93;;;7.70;58.00;;;;;;5002714;28;20193;-86
2022/02/27 10:25:28;;;;;;;6.43;4.93;;;7.80;56.50;;;;;;5016311;28;20241;-87
2022/02/27 10:27:56;;;;;;;5.73;4.90;;;7.80;55.70;;;;;;4996743;28;20262;-87
2022/02/27 10:30:26;;;;;;;6.90;5.90;;;8.10;56.00;;;;;;4996425;28;20195;-86
2022/02/27 10:33:06;;;;;;;5.20;4.60;;;8.20;55.60;;;;;;4998220;28;20193;-87
2022/02/27 10:35:52;;;;;;;7.53;5.50;;;8.40;54.60;;;;;;5021006;28;20204;-87
2022/02/27 10:38:34;;;;;;;6.70;5.30;;;8.60;54.70;;;;;;5012657;28;20185;-87
2022/02/27 10:41:12;;;;;;;5.23;4.57;;;8.80;53.90;;;;;;4994181;28;20184;-87
2022/02/27 10:43:45;;;;;;;5.60;4.33;;;9.00;53.30;;;;;;4985936;28;20835;-89
2022/02/27 10:46:12;;;;;;;7.10;4.90;;;9.20;51.30;;;;;;5017473;28;20232;-86
2022/02/27 10:48:39;;;;;;;5.43;4.73;;;9.10;52.70;;;;;;5012862;28;20768;-87
2022/02/27 10:51:05;;;;;;;6.77;5.57;;;9.10;51.60;;;;;;5013362;28;20228;-85
2022/02/27 10:53:42;;;;;;;5.80;5.17;;;9.10;51.30;;;;;;5012953;28;20545;-86
2022/02/27 10:56:10;;;;;;;8.47;5.20;;;9.20;52.50;;;;;;5012118;28;20265;-87
2022/02/27 10:58:40;;;;;;;8.23;5.30;;;9.30;52.90;;;;;;5011000;28;20848;-87
2022/02/27 11:01:25;;;;;;;7.40;5.00;;;9.50;50.20;;;;;;5010190;28;20213;-87
2022/02/27 11:03:53;;;;;;;6.60;4.93;;;9.60;50.50;;;;;;5010514;28;20209;-87
2022/02/27 11:06:20;;;;;;;8.90;4.63;;;9.90;49.00;;;;;;5012711;28;20344;-87
2022/02/27 11:08:46;;;;;;;6.90;5.03;;;10.00;49.00;;;;;;5001522;28;20201;-86
2022/02/27 11:11:16;;;;;;;7.80;4.70;;;10.40;48.20;;;;;;5001404;28;20207;-87
2022/02/27 11:13:45;;;;;;;6.93;4.73;;;10.60;46.30;;;;;;5023749;28;20185;-87
2022/02/27 11:16:13;;;;;;;6.13;5.20;;;10.60;45.50;;;;;;4992268;28;20221;-87
2022/02/27 11:18:39;;;;;;;4.43;4.03;;;10.60;46.60;;;;;;5021247;28;20201;-85
2022/02/27 11:21:05;;;;;;;4.80;3.83;;;10.50;41.10;;;;;;5016351;28;20205;-85
2022/02/27 11:23:32;;;;;;;6.93;4.83;;;10.50;40.50;;;;;;5016754;28;20212;-89
2022/02/27 11:26:02;;;;;;;4.83;3.57;;;10.60;40.50;;;;;;5024646;28;20300;-87
2022/02/27 11:28:29;;;;;;;4.40;3.87;;;10.60;39.80;;;;;;5012689;28;20201;-87
2022/02/27 11:31:01;;;;;;;5.83;4.17;;;10.60;40.00;;;;;;5003306;28;20198;-86
2022/02/27 11:33:28;;;;;;;5.73;3.73;;;10.80;40.40;;;;;;4996033;28;20182;-88
2022/02/27 11:35:55;;;;;;;4.47;3.80;;;10.90;40.40;;;;;;4998526;28;20213;-87
2022/02/27 11:38:30;;;;;;;6.23;4.27;;;11.00;40.20;;;;;;5010744;28;20194;-88
2022/02/27 11:40:59;;;;;;;5.57;3.67;;;11.20;39.70;;;;;;5016781;28;20201;-88
2022/02/27 11:43:45;;;;;;;4.20;3.80;;;11.40;39.00;;;;;;5008629;28;20205;-86
2022/02/27 11:46:13;;;;;;;3.90;3.50;;;11.60;38.10;;;;;;5004492;28;20264;-88
2022/02/27 11:49:09;;;;;;;4.13;3.73;;;11.80;37.10;;;;;;5021534;28;20194;-87
2022/02/27 11:51:37;;;;;;;4.13;3.73;;;12.20;37.50;;;;;;5033352;28;20199;-87
2022/02/27 11:54:27;;;;;;;6.70;3.63;;;12.20;37.60;;;;;;5017496;28;20195;-88
2022/02/27 11:56:58;;;;;;;4.10;3.60;;;12.20;36.20;;;;;;5006548;28;20727;-88
2022/02/27 11:59:54;;;;;;;5.27;3.47;;;12.30;36.10;;;;;;5008053;28;20199;-88
2022/02/27 12:02:48;;;;;;;7.20;6.20;;;12.10;35.30;;;;;;5028406;28;20204;-86
2022/02/27 12:05:40;;;;;;;3.93;3.53;;;12.30;35.00;;;;;;5004090;28;20233;-88
2022/02/27 12:08:11;;;;;;;3.53;3.23;;;12.50;34.80;;;;;;5015007;28;20247;-87
2022/02/27 12:10:49;;;;;;;3.47;3.17;;;12.70;34.50;;;;;;5003755;28;20713;-88
2022/02/27 12:13:19;;;;;;;4.73;3.43;;;13.00;33.20;;;;;;5014327;28;20212;-86
2022/02/27 12:15:45;;;;;;;4.37;3.47;;;13.20;33.60;;;;;;5012189;28;20310;-87
2022/02/27 12:18:11;;;;;;;4.57;3.33;;;13.10;33.20;;;;;;5015100;28;20335;-88
2022/02/27 12:20:40;;;;;;;4.13;3.60;;;13.10;32.40;;;;;;5016861;28;20188;-88
2022/02/27 12:23:07;;;;;;;4.30;3.60;;;13.20;32.30;;;;;;5011257;28;20201;-87
2022/02/27 12:25:38;;;;;;;4.77;3.63;;;13.30;32.10;;;;;;5001174;28;20217;-87
2022/02/27 12:28:05;;;;;;;5.67;3.60;;;13.40;32.30;;;;;;5032212;28;20695;-86
2022/02/27 12:30:31;;;;;;;4.37;3.20;;;13.40;32.00;;;;;;5035503;28;20189;-85
2022/02/27 12:33:07;;;;;;;5.23;4.17;;;13.70;32.30;;;;;;5035212;28;20197;-88
2022/02/27 12:35:37;;;;;;;4.50;3.40;;;14.20;31.80;;;;;;5038514;28;20235;-86
2022/02/27 12:38:07;;;;;;;4.97;3.70;;;14.20;30.40;;;;;;5018778;28;20220;-88
2022/02/27 12:40:34;;;;;;;4.00;3.70;;;14.10;32.40;;;;;;5011574;28;20199;-88
2022/02/27 12:43:12;;;;;;;4.70;4.17;;;14.10;32.30;;;;;;5013332;28;20252;-89
2022/02/27 12:45:38;;;;;;;4.80;4.20;;;14.00;32.40;;;;;;5014574;28;20399;-89
2022/02/27 12:48:12;;;;;;;5.17;4.00;;;14.20;31.70;;;;;;5015338;28;20314;-89
2022/02/27 12:50:49;;;;;;;3.73;3.23;;;14.30;31.30;;;;;;5008208;28;20653;-89
2022/02/27 12:53:16;;;;;;;4.37;3.97;;;14.20;30.00;;;;;;4998503;28;20194;-88